Time;durP1;ratioP1;P1;durP2;ratioP2;P2;SDS_P1;SDS_P2;PMS_P1;PMS_P2;Temp;Humidity;BMP_temperature;BMP_pressure;BME280_temperature;BME280_humidity;BME280_pressure;Samples;Min_cycle;Max_cycle;Signal;HPM_P1;HPM_P2
2024/01/11 00:01:49;;;;;;;61.20;29.52;;;;;;;-10.49;90.35;102665.53;7400845;19;20363;-66
2024/01/11 00:04:20;;;;;;;61.40;29.35;;;;;;;-10.51;90.69;102684.78;7398213;19;20014;-66
2024/01/11 00:06:49;;;;;;;63.83;29.38;;;;;;;-10.53;90.80;102682.84;7401424;19;20037;-66
2024/01/11 00:09:17;;;;;;;58.42;28.17;;;;;;;-10.57;91.01;102679.13;7400561;19;20371;-65
2024/01/11 00:11:46;;;;;;;62.97;28.65;;;;;;;-10.57;90.80;102678.25;7400810;19;20086;-65
2024/01/11 00:14:14;;;;;;;64.75;30.00;;;;;;;-10.58;90.79;102674.78;7398837;19;20011;-66
2024/01/11 00:16:44;;;;;;;68.05;31.15;;;;;;;-10.59;90.94;102678.06;7400684;19;20014;-66
2024/01/11 00:19:12;;;;;;;54.65;28.10;;;;;;;-10.59;90.75;102672.13;7400603;19;20024;-66
2024/01/11 00:21:43;;;;;;;65.18;29.15;;;;;;;-10.60;90.58;102670.31;7398438;19;20383;-66
2024/01/11 00:24:12;;;;;;;58.78;28.50;;;;;;;-10.61;90.70;102668.53;7399593;19;20010;-65
2024/01/11 00:26:41;;;;;;;69.07;29.40;;;;;;;-10.61;90.77;102663.44;7397732;19;20027;-65
2024/01/11 00:29:09;;;;;;;66.85;31.05;;;;;;;-10.62;90.64;102649.00;7400253;19;20011;-65
2024/01/11 00:31:38;;;;;;;63.63;30.08;;;;;;;-10.62;90.55;102641.41;7400220;19;20077;-65
2024/01/11 00:34:07;;;;;;;70.20;29.98;;;;;;;-10.64;90.43;102633.63;7397519;19;20014;-65
2024/01/11 00:36:36;;;;;;;65.95;30.02;;;;;;;-10.65;90.58;102630.19;7400072;19;20039;-65
2024/01/11 00:39:07;;;;;;;66.80;30.55;;;;;;;-10.65;90.57;102629.31;7399625;19;20488;-65
2024/01/11 00:41:36;;;;;;;62.15;28.63;;;;;;;-10.67;90.76;102639.28;7400205;19;20018;-66
2024/01/11 00:44:04;;;;;;;69.55;31.13;;;;;;;-10.68;90.83;102632.47;7397756;19;20390;-66
2024/01/11 00:46:33;;;;;;;64.38;29.50;;;;;;;-10.70;91.03;102626.34;7397457;19;20015;-64
2024/01/11 00:49:01;;;;;;;70.18;30.90;;;;;;;-10.69;91.10;102624.69;7399691;19;20031;-64
2024/01/11 00:51:30;;;;;;;68.00;33.08;;;;;;;-10.70;91.19;102630.50;7399618;19;20015;-65
2024/01/11 00:53:58;;;;;;;73.03;33.38;;;;;;;-10.69;91.27;102637.38;7397564;19;20014;-65
2024/01/11 00:56:30;;;;;;;60.53;29.85;;;;;;;-10.70;91.32;102643.19;7399462;19;20077;-65
2024/01/11 00:58:58;;;;;;;63.03;28.98;;;;;;;-10.69;91.33;102644.97;7397565;19;20043;-64
2024/01/11 01:01:27;;;;;;;67.30;31.73;;;;;;;-10.69;91.23;102647.50;7396539;19;20094;-64
2024/01/11 01:03:55;;;;;;;74.70;34.22;;;;;;;-10.68;91.19;102656.91;7396464;19;20090;-64
2024/01/11 01:06:24;;;;;;;74.15;34.40;;;;;;;-10.69;91.36;102647.50;7397253;19;20015;-64
2024/01/11 01:08:52;;;;;;;73.30;33.38;;;;;;;-10.68;91.51;102636.63;7399052;19;20414;-65
2024/01/11 01:11:20;;;;;;;78.60;34.63;;;;;;;-10.66;91.51;102635.13;7398895;19;20018;-64
2024/01/11 01:13:52;;;;;;;70.57;32.65;;;;;;;-10.66;91.63;102641.09;7397502;19;20090;-65
2024/01/11 01:16:20;;;;;;;70.32;33.70;;;;;;;-10.65;91.62;102647.94;7397021;19;20014;-65
2024/01/11 01:18:49;;;;;;;77.80;33.30;;;;;;;-10.63;91.64;102629.44;7398640;19;20350;-65
2024/01/11 01:21:17;;;;;;;69.70;33.97;;;;;;;-10.62;91.72;102621.09;7396492;19;20013;-65
2024/01/11 01:23:46;;;;;;;70.07;32.22;;;;;;;-10.62;91.72;102629.59;7396914;19;20014;-65
2024/01/11 01:26:14;;;;;;;68.72;32.72;;;;;;;-10.61;91.79;102627.94;7396872;19;20018;-65
2024/01/11 01:28:43;;;;;;;71.70;32.58;;;;;;;-10.61;91.88;102628.84;7398361;19;20007;-65
2024/01/11 01:31:15;;;;;;;71.18;31.77;;;;;;;-10.61;91.57;102620.31;7395827;19;20368;-65
2024/01/11 01:33:43;;;;;;;65.53;30.95;;;;;;;-10.62;91.55;102616.03;7396693;19;20031;-65
2024/01/11 01:36:13;;;;;;;69.10;32.97;;;;;;;-10.62;91.68;102628.72;7398039;19;20074;-64
2024/01/11 01:38:41;;;;;;;71.22;31.13;;;;;;;-10.63;91.80;102634.53;7395984;19;20070;-64
2024/01/11 01:41:10;;;;;;;63.42;29.73;;;;;;;-10.63;92.03;102632.00;7397463;19;20541;-65
2024/01/11 01:43:38;;;;;;;67.28;30.35;;;;;;;-10.64;91.87;102641.22;7396810;19;20014;-65
2024/01/11 01:46:16;;;;;;;72.40;32.42;;;;;;;-10.63;91.83;102629.44;7396684;19;20042;-65
2024/01/11 01:48:48;;;;;;;67.95;30.60;;;;;;;-10.64;91.83;102628.53;7397441;19;20417;-65
2024/01/11 01:51:16;;;;;;;63.55;31.00;;;;;;;-10.66;91.62;102610.66;7395408;19;20016;-65
2024/01/11 01:53:45;;;;;;;69.22;31.33;;;;;;;-10.69;91.59;102607.84;7396384;19;20014;-65
2024/01/11 01:56:15;;;;;;;66.90;30.70;;;;;;;-10.70;91.62;102607.66;7397361;19;20078;-65
2024/01/11 01:58:45;;;;;;;63.22;29.38;;;;;;;-10.71;91.58;102596.63;7397327;19;20074;-65
2024/01/11 02:01:14;;;;;;;71.15;32.75;;;;;;;-10.73;91.13;102584.56;7397192;19;20011;-65
2024/01/11 02:03:43;;;;;;;65.00;31.83;;;;;;;-10.77;91.22;102578.31;7396132;19;20018;-65
2024/01/11 02:06:23;;;;;;;64.72;31.85;;;;;;;-10.78;91.54;102584.13;7395165;19;20018;-64
2024/01/11 02:08:54;;;;;;;68.47;30.00;;;;;;;-10.83;91.68;102582.78;7397411;19;20066;-64
2024/01/11 02:11:24;;;;;;;70.90;30.98;;;;;;;-10.82;91.15;102582.94;7396439;19;20027;-65
2024/01/11 02:13:53;;;;;;;58.78;29.60;;;;;;;-10.86;90.96;102559.69;7396476;19;20015;-64
2024/01/11 02:16:21;;;;;;;64.95;30.13;;;;;;;-10.88;91.12;102558.66;7396791;19;20090;-65
2024/01/11 02:18:49;;;;;;;68.00;31.77;;;;;;;-10.90;91.01;102567.78;7396328;19;20421;-65
2024/01/11 02:21:21;;;;;;;65.18;31.83;;;;;;;-10.95;91.18;102564.78;7394787;19;20098;-65
2024/01/11 02:24:04;;;;;;;69.88;31.63;;;;;;;-10.98;91.35;102567.03;7395707;19;20074;-66
2024/01/11 02:26:33;;;;;;;77.23;33.13;;;;;;;-11.00;91.45;102560.94;7395772;19;20421;-65
2024/01/11 02:29:01;;;;;;;63.63;30.67;;;;;;;-11.02;91.66;102559.88;7396329;19;20476;-65
2024/01/11 02:31:30;;;;;;;71.22;32.30;;;;;;;-11.04;91.85;102551.25;7396218;19;20413;-65
2024/01/11 02:33:59;;;;;;;64.68;29.58;;;;;;;-11.05;91.76;102546.94;7395016;19;20022;-65
2024/01/11 02:36:28;;;;;;;70.82;31.95;;;;;;;-11.06;91.68;102550.22;7395663;19;20498;-65
2024/01/11 02:38:59;;;;;;;70.88;32.63;;;;;;;-11.09;91.94;102566.03;7394421;19;20018;-65
2024/01/11 02:41:29;;;;;;;62.65;30.08;;;;;;;-11.09;92.19;102575.25;7394739;19;20014;-65
2024/01/11 02:43:58;;;;;;;68.88;32.30;;;;;;;-11.10;92.18;102589.56;7394690;19;20035;-65
2024/01/11 02:46:26;;;;;;;69.72;35.08;;;;;;;-11.10;92.30;102576.91;7394815;19;20010;-65
2024/01/11 02:49:01;;;;;;;71.43;33.38;;;;;;;-11.12;92.38;102565.72;7395711;19;20350;-65
2024/01/11 02:51:30;;;;;;;73.75;33.05;;;;;;;-11.10;92.55;102579.44;7395352;19;20477;-65
2024/01/11 02:54:01;;;;;;;67.45;34.55;;;;;;;-11.09;92.54;102590.47;7394223;19;20501;-65
2024/01/11 02:56:29;;;;;;;73.60;34.08;;;;;;;-11.07;93.03;102594.03;7395168;19;20078;-65
2024/01/11 02:58:57;;;;;;;75.63;35.97;;;;;;;-11.08;93.95;102603.31;7395119;19;20011;-65
2024/01/11 03:01:26;;;;;;;82.30;36.30;;;;;;;-11.07;94.17;102607.59;7393723;19;20010;-65
2024/01/11 03:03:54;;;;;;;68.85;35.45;;;;;;;-11.05;94.70;102620.44;7394214;19;20015;-65
2024/01/11 03:06:24;;;;;;;80.93;35.88;;;;;;;-11.03;94.10;102629.06;7393935;19;20017;-65
2024/01/11 03:08:52;;;;;;;77.00;35.17;;;;;;;-11.03;94.31;102619.84;7395241;19;20018;-65
2024/01/11 03:11:23;;;;;;;79.38;35.40;;;;;;;-11.03;94.25;102627.44;7394756;19;20388;-65
2024/01/11 03:13:51;;;;;;;68.75;33.83;;;;;;;-11.06;94.21;102642.34;7394997;19;20015;-67
2024/01/11 03:16:20;;;;;;;77.32;35.35;;;;;;;-11.06;94.21;102639.81;7395590;19;20482;-65
2024/01/11 03:18:46;;;;;;;75.32;34.38;;;;;;;-11.05;94.06;102623.88;7394672;19;20027;-66
2024/01/11 03:21:14;;;;;;;77.35;34.15;;;;;;;-11.03;93.85;102630.00;7392449;19;20018;-65
2024/01/11 03:23:43;;;;;;;75.35;35.50;;;;;;;-11.02;93.83;102618.19;7396406;19;20011;-65
2024/01/11 03:26:16;;;;;;;67.32;31.83;;;;;;;-10.98;93.79;102615.19;7401645;19;20023;-65
2024/01/11 03:28:47;;;;;;;69.07;33.40;;;;;;;-10.96;93.72;102621.31;7402106;19;20070;-65
2024/01/11 03:31:15;;;;;;;75.95;36.42;;;;;;;-10.93;93.80;102620.72;7401959;19;20090;-65
2024/01/11 03:33:44;;;;;;;75.45;34.63;;;;;;;-10.92;93.71;102623.38;7400650;19;20086;-65
2024/01/11 03:36:13;;;;;;;70.07;34.55;;;;;;;-10.89;93.68;102625.31;7401927;19;20017;-65
2024/01/11 03:38:41;;;;;;;81.25;35.65;;;;;;;-10.88;93.52;102615.34;7401519;19;20014;-65
2024/01/11 03:41:10;;;;;;;63.83;32.15;;;;;;;-10.86;93.50;102602.81;7401846;19;20010;-65
2024/01/11 03:43:39;;;;;;;72.30;35.10;;;;;;;-10.85;93.72;102605.47;7398863;19;20011;-65
2024/01/11 03:46:10;;;;;;;67.22;34.95;;;;;;;-10.85;93.56;102602.94;7400740;19;20077;-65
2024/01/11 03:48:38;;;;;;;72.85;34.67;;;;;;;-10.83;93.71;102608.16;7401682;19;20418;-65
2024/01/11 03:51:07;;;;;;;77.97;35.58;;;;;;;-10.83;93.69;102590.41;7401502;19;20086;-65
2024/01/11 03:53:38;;;;;;;74.95;35.00;;;;;;;-10.83;93.57;102592.94;7400119;19;20440;-65
2024/01/11 03:56:07;;;;;;;74.00;33.58;;;;;;;-10.83;93.56;102601.47;7402643;19;20024;-65
2024/01/11 03:58:35;;;;;;;75.72;34.92;;;;;;;-10.83;93.71;102600.53;7398628;19;20427;-65
2024/01/11 04:01:04;;;;;;;72.05;34.85;;;;;;;-10.84;93.72;102608.91;7400938;19;20464;-65
2024/01/11 04:03:35;;;;;;;76.90;33.97;;;;;;;-10.85;93.72;102612.22;7399860;19;20018;-65
2024/01/11 04:06:03;;;;;;;73.13;36.28;;;;;;;-10.84;93.89;102607.28;7398736;19;20031;-65
2024/01/11 04:08:32;;;;;;;67.78;33.03;;;;;;;-10.84;93.67;102602.19;7400035;19;20077;-65
2024/01/11 04:11:00;;;;;;;76.35;34.90;;;;;;;-10.84;93.67;102603.81;7401013;19;20023;-65
2024/01/11 04:13:29;;;;;;;69.78;33.00;;;;;;;-10.84;93.80;102598.75;7399184;19;20489;-65
2024/01/11 04:18:28;;;;;;;76.43;34.70;;;;;;;-10.85;93.54;102581.78;7397813;19;20034;-65
2024/01/11 04:20:59;;;;;;;67.15;33.22;;;;;;;-10.86;93.79;102585.94;7398751;19;20028;-65
2024/01/11 04:23:27;;;;;;;75.43;33.90;;;;;;;-10.87;93.72;102578.19;7397841;19;20517;-65
2024/01/11 04:25:56;;;;;;;77.03;32.92;;;;;;;-10.88;93.59;102577.31;7399559;19;20011;-65
2024/01/11 04:28:24;;;;;;;74.13;33.75;;;;;;;-10.90;93.67;102577.91;7400362;19;20014;-64
2024/01/11 04:30:53;;;;;;;76.07;33.78;;;;;;;-10.92;93.22;102571.78;7400196;19;20018;-65
2024/01/11 04:33:21;;;;;;;72.47;34.67;;;;;;;-10.96;93.26;102568.06;7399139;19;20018;-65
2024/01/11 04:35:50;;;;;;;67.85;30.80;;;;;;;-10.99;93.15;102558.53;7399520;19;20018;-65
2024/01/11 04:38:21;;;;;;;66.10;32.80;;;;;;;-11.02;92.53;102539.59;7399768;19;20015;-65
2024/01/11 04:40:49;;;;;;;71.63;33.60;;;;;;;-11.06;92.59;102543.47;7399316;19;20027;-65
2024/01/11 04:43:18;;;;;;;69.03;34.65;;;;;;;-11.08;93.02;102554.22;7398878;19;20027;-65
2024/01/11 04:45:46;;;;;;;73.95;33.17;;;;;;;-11.10;93.32;102584.50;7399491;19;20070;-65
2024/01/11 04:48:14;;;;;;;69.50;32.97;;;;;;;-11.11;93.42;102591.97;7399568;19;20032;-65
2024/01/11 04:50:43;;;;;;;72.50;33.65;;;;;;;-11.13;93.63;102601.97;7397289;19;20014;-65
2024/01/11 04:53:12;;;;;;;62.30;33.50;;;;;;;-11.14;93.24;102592.56;7398662;19;20017;-66
2024/01/11 04:55:43;;;;;;;78.68;35.53;;;;;;;-11.16;93.52;102601.66;7398885;19;20376;-65
2024/01/11 04:58:12;;;;;;;70.25;34.03;;;;;;;-11.16;93.66;102604.19;7398644;19;20384;-65
2024/01/11 05:00:40;;;;;;;75.00;34.90;;;;;;;-11.17;93.84;102590.63;7398719;19;20023;-65
2024/01/11 05:03:09;;;;;;;65.63;31.23;;;;;;;-11.16;94.16;102604.19;7396815;19;20010;-65
2024/01/11 05:05:37;;;;;;;66.55;31.98;;;;;;;-11.15;94.08;102603.44;7398579;19;20467;-67
2024/01/11 05:08:07;;;;;;;77.13;33.28;;;;;;;-11.13;93.95;102594.38;7396486;19;20014;-65
2024/01/11 05:10:35;;;;;;;67.32;30.77;;;;;;;-11.12;94.04;102591.06;7398660;19;20010;-69
2024/01/11 05:13:06;;;;;;;74.75;35.22;;;;;;;-11.10;94.15;102598.84;7398450;19;20078;-66
2024/01/11 05:15:34;;;;;;;61.92;32.55;;;;;;;-11.09;94.09;102600.59;7399529;19;20035;-66
2024/01/11 05:18:03;;;;;;;70.38;35.30;;;;;;;-11.08;94.14;102597.31;7397644;19;20031;-64
2024/01/11 05:20:31;;;;;;;75.32;34.42;;;;;;;-11.07;94.18;102581.38;7396739;19;20372;-65
2024/01/11 05:23:00;;;;;;;73.03;33.63;;;;;;;-11.07;94.18;102572.09;7397851;19;20024;-66
2024/01/11 05:25:31;;;;;;;70.72;33.53;;;;;;;-11.06;94.15;102556.16;7398314;19;20035;-65
2024/01/11 05:27:59;;;;;;;66.47;30.77;;;;;;;-11.05;94.07;102547.81;7396241;19;20010;-65
2024/01/11 05:30:30;;;;;;;63.92;29.75;;;;;;;-11.04;94.31;102563.94;7399225;19;20026;-64
2024/01/11 05:32:59;;;;;;;66.47;32.55;;;;;;;-11.03;94.50;102573.28;7397913;19;20014;-64
2024/01/11 05:35:28;;;;;;;71.63;33.33;;;;;;;-11.02;94.44;102570.03;7395531;19;20014;-65
2024/01/11 05:37:57;;;;;;;67.38;33.78;;;;;;;-10.99;94.36;102552.59;7396080;19;20018;-65
2024/01/11 05:40:26;;;;;;;70.22;33.03;;;;;;;-10.97;94.65;102541.84;7395370;19;20017;-65
2024/01/11 05:42:54;;;;;;;65.93;32.60;;;;;;;-10.95;94.63;102541.06;7396560;19;20011;-65
2024/01/11 05:45:22;;;;;;;62.60;30.45;;;;;;;-10.92;94.57;102554.94;7395297;19;20087;-65
2024/01/11 05:47:53;;;;;;;61.13;30.40;;;;;;;-10.90;94.69;102552.56;7394142;19;20014;-66
2024/01/11 05:50:22;;;;;;;63.80;31.95;;;;;;;-10.89;94.62;102559.38;7397647;19;20006;-66
2024/01/11 05:52:52;;;;;;;65.78;32.85;;;;;;;-10.88;94.51;102571.31;7396853;19;20376;-65
2024/01/11 05:55:20;;;;;;;71.78;33.60;;;;;;;-10.87;94.69;102557.91;7397139;19;20357;-66
2024/01/11 05:57:48;;;;;;;75.57;36.80;;;;;;;-10.85;94.75;102541.19;7395828;19;20022;-65
2024/01/11 06:00:17;;;;;;;64.68;32.30;;;;;;;-10.85;94.72;102513.31;7394551;19;20090;-65
2024/01/11 06:02:46;;;;;;;60.00;29.75;;;;;;;-10.85;94.75;102531.94;7395145;19;20498;-67
2024/01/11 06:05:17;;;;;;;67.30;31.92;;;;;;;-10.83;94.82;102554.91;7395629;19;20010;-65
2024/01/11 06:07:46;;;;;;;66.53;32.45;;;;;;;-10.82;94.81;102559.22;7395304;19;20154;-65
2024/01/11 06:10:17;;;;;;;67.50;31.60;;;;;;;-10.80;94.86;102560.28;7394010;19;20378;-65
2024/01/11 06:12:46;;;;;;;64.60;32.65;;;;;;;-10.78;94.88;102563.84;7395779;19;20030;-62
2024/01/11 06:15:14;;;;;;;70.95;32.40;;;;;;;-10.76;95.08;102567.41;7396745;19;20014;-64
2024/01/11 06:17:43;;;;;;;65.18;30.17;;;;;;;-10.74;95.06;102572.63;7396501;19;20015;-64
2024/01/11 06:20:13;;;;;;;99.63;42.47;;;;;;;-10.72;95.09;102563.53;7394002;19;20007;-61
2024/01/11 06:22:44;;;;;;;69.70;32.25;;;;;;;-10.71;95.25;102581.41;7395416;19;20018;-63
2024/01/11 06:25:12;;;;;;;67.25;31.20;;;;;;;-10.68;95.23;102573.19;7395660;19;20024;-63
2024/01/11 06:27:41;;;;;;;67.97;32.63;;;;;;;-10.66;95.19;102564.09;7395051;19;20032;-64
2024/01/11 06:30:11;;;;;;;69.15;32.08;;;;;;;-10.65;95.24;102571.84;7395083;19;20521;-65
2024/01/11 06:32:39;;;;;;;64.97;31.58;;;;;;;-10.62;95.68;102586.47;7395703;19;20018;-65
2024/01/11 06:35:09;;;;;;;60.53;30.92;;;;;;;-10.60;95.58;102573.91;7395622;19;20018;-65
2024/01/11 06:37:38;;;;;;;65.88;32.00;;;;;;;-10.58;95.73;102574.97;7396095;19;20028;-66
2024/01/11 06:40:10;;;;;;;65.13;32.42;;;;;;;-10.54;95.93;102574.50;7396081;19;20018;-65
2024/01/11 06:42:38;;;;;;;65.00;31.70;;;;;;;-10.52;95.94;102567.94;7395758;19;20020;-66
2024/01/11 06:45:08;;;;;;;54.08;27.70;;;;;;;-10.51;96.90;102555.38;7395755;19;20023;-64
2024/01/11 06:47:36;;;;;;;59.80;30.02;;;;;;;-10.48;97.24;102563.25;7394283;19;20041;-64
2024/01/11 06:50:05;;;;;;;57.25;26.52;;;;;;;-10.45;97.52;102554.16;7393760;19;20546;-64
2024/01/11 06:52:33;;;;;;;58.38;27.77;;;;;;;-10.43;97.61;102565.34;7395421;19;20014;-64
2024/01/11 06:55:02;;;;;;;59.97;27.55;;;;;;;-10.42;98.13;102575.63;7393211;19;20024;-65
2024/01/11 06:57:33;;;;;;;49.00;24.50;;;;;;;-10.40;98.10;102574.16;7395119;19;20014;-64
2024/01/11 07:00:02;;;;;;;48.50;23.08;;;;;;;-10.39;98.47;102577.56;7395522;19;20015;-65
2024/01/11 07:02:30;;;;;;;46.10;23.40;;;;;;;-10.37;99.29;102568.47;7395290;19;20018;-65
2024/01/11 07:04:59;;;;;;;54.15;25.10;;;;;;;-10.36;98.29;102571.13;7395083;19;20015;-64
2024/01/11 07:07:27;;;;;;;50.15;26.58;;;;;;;-10.34;98.21;102579.72;7394075;19;20021;-64
2024/01/11 07:09:57;;;;;;;57.17;24.35;;;;;;;-10.32;99.00;102577.34;7393094;19;20027;-63
2024/01/11 07:12:25;;;;;;;51.72;22.00;;;;;;;-10.31;99.31;102581.69;7394806;19;20015;-64
2024/01/11 07:14:56;;;;;;;52.45;24.90;;;;;;;-10.27;99.56;102585.38;7394810;19;20019;-64
2024/01/11 07:17:25;;;;;;;55.65;25.52;;;;;;;-10.28;99.24;102573.47;7393184;19;20032;-64
2024/01/11 07:19:53;;;;;;;54.67;25.98;;;;;;;-10.26;99.13;102557.63;7392521;19;20489;-65
2024/01/11 07:22:22;;;;;;;59.45;26.80;;;;;;;-10.25;98.89;102559.38;7392485;19;20022;-65
2024/01/11 07:24:50;;;;;;;54.55;26.10;;;;;;;-10.23;99.12;102557.88;7392718;19;20031;-68
2024/01/11 07:27:18;;;;;;;53.05;23.80;;;;;;;-10.22;98.98;102559.69;7392195;19;20493;-67
2024/01/11 07:29:47;;;;;;;56.70;25.10;;;;;;;-10.22;99.18;102559.69;7394043;19;20036;-67
2024/01/11 07:32:18;;;;;;;52.47;25.40;;;;;;;-10.20;98.81;102563.22;7394478;19;20014;-67
2024/01/11 07:34:46;;;;;;;52.47;22.77;;;;;;;-10.19;99.22;102565.00;7392295;19;20019;-68
2024/01/11 07:37:15;;;;;;;54.67;25.35;;;;;;;-10.17;98.93;102567.72;7393746;19;20526;-67
2024/01/11 07:39:43;;;;;;;54.35;26.30;;;;;;;-10.14;99.31;102562.91;7393474;19;20006;-68
2024/01/11 07:42:12;;;;;;;53.80;24.35;;;;;;;-10.13;99.20;102563.78;7392626;19;20485;-68
2024/01/11 07:44:40;;;;;;;58.17;26.85;;;;;;;-10.09;99.66;102543.91;7391805;19;20018;-68
2024/01/11 07:47:09;;;;;;;55.50;27.88;;;;;;;-10.07;99.40;102542.41;7392089;19;20085;-68
2024/01/11 07:49:40;;;;;;;68.50;30.15;;;;;;;-10.01;99.35;102545.50;7394037;19;20019;-68
2024/01/11 07:52:08;;;;;;;61.22;28.05;;;;;;;-9.98;99.07;102544.88;7394169;19;20014;-68
2024/01/11 07:54:37;;;;;;;61.17;28.17;;;;;;;-9.94;98.88;102551.13;7392084;19;20027;-71
2024/01/11 07:57:06;;;;;;;58.50;26.25;;;;;;;-9.92;98.47;102542.00;7394030;19;20014;-69
2024/01/11 07:59:35;;;;;;;57.65;26.92;;;;;;;-9.88;98.37;102547.50;7392490;19;20082;-68
2024/01/11 08:02:04;;;;;;;56.00;26.58;;;;;;;-9.86;98.50;102561.22;7391596;19;20086;-69
2024/01/11 08:04:33;;;;;;;56.58;26.30;;;;;;;-9.79;98.47;102565.22;7391167;19;20014;-68
2024/01/11 08:07:11;;;;;;;53.75;26.45;;;;;;;-9.75;98.40;102557.09;7391559;19;20015;-69
2024/01/11 08:09:45;;;;;;;58.03;27.80;;;;;;;-9.70;98.46;102539.75;7393757;19;20024;-68
2024/01/11 08:12:13;;;;;;;61.60;26.13;;;;;;;-9.66;98.48;102529.09;7398041;19;20343;-69
2024/01/11 08:14:41;;;;;;;57.65;27.85;;;;;;;-9.60;98.27;102546.50;7397927;19;20036;-69
2024/01/11 08:17:10;;;;;;;48.70;23.73;;;;;;;-9.56;98.57;102562.19;7399617;19;20485;-69
2024/01/11 08:19:39;;;;;;;54.78;26.00;;;;;;;-9.50;98.97;102566.94;7400940;19;20075;-69
2024/01/11 08:22:11;;;;;;;48.78;25.40;;;;;;;-9.43;98.97;102571.78;7398328;19;20010;-68
2024/01/11 08:24:39;;;;;;;51.33;25.73;;;;;;;-9.38;99.07;102557.81;7398026;19;20031;-68
2024/01/11 08:27:08;;;;;;;51.10;26.48;;;;;;;-9.29;99.31;102561.97;7399397;19;20011;-68
2024/01/11 08:29:36;;;;;;;54.38;24.85;;;;;;;-9.24;99.47;102548.88;7400226;19;20073;-68
2024/01/11 08:32:26;;;;;;;51.50;24.98;;;;;;;-9.19;99.96;102542.53;7400249;19;20010;-69
2024/01/11 08:34:55;;;;;;;59.63;27.02;;;;;;;-9.13;100.00;102529.47;7400023;19;20018;-69
2024/01/11 08:37:26;;;;;;;46.33;22.95;;;;;;;-9.08;99.84;102522.25;7400210;19;20086;-69
2024/01/11 08:39:54;;;;;;;54.63;24.40;;;;;;;-9.05;99.58;102525.06;7400160;19;20023;-69
2024/01/11 08:42:23;;;;;;;58.85;25.00;;;;;;;-8.99;99.25;102537.44;7396928;19;20023;-69
2024/01/11 08:44:52;;;;;;;57.72;26.30;;;;;;;-8.94;99.09;102542.13;7397267;19;20023;-68
2024/01/11 08:47:20;;;;;;;53.92;23.63;;;;;;;-8.90;99.05;102530.56;7399798;19;20010;-69
2024/01/11 08:49:56;;;;;;;49.97;23.88;;;;;;;-8.87;99.28;102541.00;7399226;19;20007;-68
2024/01/11 08:52:27;;;;;;;42.72;22.98;;;;;;;-8.84;99.21;102541.28;7397054;19;20018;-68
2024/01/11 08:54:55;;;;;;;50.85;24.60;;;;;;;-8.80;99.02;102545.00;7399658;19;20406;-68
2024/01/11 08:57:23;;;;;;;52.72;24.10;;;;;;;-8.76;98.84;102537.72;7399551;19;20031;-69
2024/01/11 08:59:52;;;;;;;45.22;22.05;;;;;;;-8.74;99.22;102531.13;7396909;19;20031;-69
2024/01/11 09:02:20;;;;;;;49.13;22.52;;;;;;;-8.70;99.29;102534.81;7399190;19;20031;-69
2024/01/11 09:04:50;;;;;;;42.42;21.77;;;;;;;-8.68;99.71;102534.19;7396705;19;20018;-69
2024/01/11 09:07:18;;;;;;;48.85;22.83;;;;;;;-8.64;99.66;102540.44;7397113;19;20011;-68
2024/01/11 09:09:49;;;;;;;51.80;22.88;;;;;;;-8.60;99.96;102531.41;7398369;19;20498;-69
2024/01/11 09:12:18;;;;;;;52.65;22.75;;;;;;;-8.56;100.00;102530.91;7396321;19;20481;-69
2024/01/11 09:14:46;;;;;;;51.00;20.73;;;;;;;-8.52;100.00;102528.75;7396599;19;20019;-69
2024/01/11 09:17:15;;;;;;;53.42;23.02;;;;;;;-8.46;100.00;102514.78;7398946;19;20019;-69
2024/01/11 09:19:43;;;;;;;47.30;20.60;;;;;;;-8.42;100.00;102520.19;7398137;19;20007;-69
2024/01/11 09:22:18;;;;;;;46.78;19.83;;;;;;;-8.41;100.00;102510.91;7393875;19;20019;-69
2024/01/11 09:24:49;;;;;;;55.42;21.58;;;;;;;-8.30;100.00;102514.34;7396300;19;20031;-69
2024/01/11 09:27:18;;;;;;;51.17;19.55;;;;;;;-8.25;100.00;102531.81;7398958;19;20010;-68
2024/01/11 09:29:47;;;;;;;53.90;21.10;;;;;;;-8.20;100.00;102527.97;7395439;19;20489;-69
2024/01/11 09:32:16;;;;;;;49.75;20.48;;;;;;;-8.13;100.00;102509.00;7396095;19;20032;-69
2024/01/11 09:34:45;;;;;;;44.75;18.98;;;;;;;-8.07;100.00;102508.63;7395731;19;20037;-69
2024/01/11 09:37:14;;;;;;;51.80;19.85;;;;;;;-8.00;100.00;102505.78;7396023;19;20011;-69
2024/01/11 09:39:42;;;;;;;57.08;21.80;;;;;;;-7.95;100.00;102516.38;7397397;19;20477;-68
2024/01/11 09:42:13;;;;;;;51.03;20.48;;;;;;;-7.88;100.00;102511.91;7396588;19;20027;-69
2024/01/11 09:44:43;;;;;;;48.95;19.50;;;;;;;-7.83;100.00;102499.53;7395770;19;20073;-68
2024/01/11 09:47:14;;;;;;;46.78;19.35;;;;;;;-7.77;100.00;102500.03;7398988;19;20520;-69
2024/01/11 09:49:43;;;;;;;45.47;17.95;;;;;;;-7.71;100.00;102505.63;7396227;19;20022;-69
2024/01/11 09:52:14;;;;;;;58.10;20.20;;;;;;;-7.66;100.00;102490.69;7397019;19;20074;-69
2024/01/11 09:54:43;;;;;;;54.88;18.60;;;;;;;-7.61;100.00;102485.97;7395419;19;20015;-69
2024/01/11 09:57:14;;;;;;;50.15;20.00;;;;;;;-7.56;100.00;102485.56;7397143;19;20049;-69
2024/01/11 09:59:44;;;;;;;52.90;18.63;;;;;;;-7.49;100.00;102489.50;7395466;19;20027;-69
2024/01/11 10:02:13;;;;;;;60.15;20.25;;;;;;;-7.45;100.00;102483.00;7396500;19;20003;-69
2024/01/11 10:04:45;;;;;;;50.97;19.48;;;;;;;-7.39;100.00;102478.38;7395326;19;20101;-69
2024/01/11 10:07:14;;;;;;;46.15;17.52;;;;;;;-7.32;100.00;102483.19;7397251;19;20035;-69
2024/01/11 10:09:44;;;;;;;46.47;16.98;;;;;;;-7.27;100.00;102478.47;7394565;19;20427;-69
2024/01/11 10:12:15;;;;;;;51.00;17.10;;;;;;;-7.21;100.00;102484.03;7396314;19;20011;-68
2024/01/11 10:14:43;;;;;;;49.25;15.23;;;;;;;-7.16;100.00;102481.88;7394550;19;20373;-69
2024/01/11 10:17:12;;;;;;;50.17;16.95;;;;;;;-7.11;100.00;102493.31;7394483;19;20351;-69
2024/01/11 10:19:40;;;;;;;51.85;19.63;;;;;;;-7.07;100.00;102492.78;7396479;19;20085;-69
2024/01/11 10:22:12;;;;;;;61.35;17.90;;;;;;;-7.03;100.00;102489.69;7394812;19;20489;-69
2024/01/11 10:24:41;;;;;;;46.22;16.65;;;;;;;-6.97;100.00;102515.69;7394089;19;20485;-69
2024/01/11 10:27:12;;;;;;;46.90;16.48;;;;;;;-6.95;100.00;102503.94;7396286;19;20015;-69
2024/01/11 10:29:43;;;;;;;44.00;17.45;;;;;;;-6.89;100.00;102508.63;7394274;19;20492;-69
2024/01/11 10:32:12;;;;;;;50.75;15.57;;;;;;;-6.88;100.00;102510.41;7395142;19;20502;-69
2024/01/11 10:34:41;;;;;;;44.47;15.95;;;;;;;-6.82;100.00;102502.31;7394422;19;20014;-69
2024/01/11 10:37:10;;;;;;;45.47;16.05;;;;;;;-6.81;100.00;102505.00;7396051;19;20015;-69
2024/01/11 10:39:40;;;;;;;41.10;14.02;;;;;;;-6.75;100.00;102495.28;7395986;19;20488;-69
2024/01/11 10:42:11;;;;;;;46.53;15.15;;;;;;;-6.72;100.00;102482.72;7396809;19;20376;-69
2024/01/11 10:44:47;;;;;;;47.53;15.13;;;;;;;-6.68;100.00;102478.75;7393859;19;20200;-69
2024/01/11 10:47:17;;;;;;;39.63;15.95;;;;;;;-6.66;100.00;102482.34;7395147;19;20592;-68
2024/01/11 10:49:49;;;;;;;44.13;15.52;;;;;;;-6.64;100.00;102480.75;7393020;19;20014;-69
2024/01/11 10:52:22;;;;;;;38.17;15.60;;;;;;;-6.64;100.00;102483.31;7394132;19;20014;-68
2024/01/11 10:54:51;;;;;;;43.47;15.60;;;;;;;-6.60;100.00;102482.75;7393413;19;20121;-68
2024/01/11 10:57:20;;;;;;;47.45;15.85;;;;;;;-6.55;100.00;102475.47;7395535;19;20023;-68
2024/01/11 10:59:54;;;;;;;46.92;16.70;;;;;;;-6.49;100.00;102477.63;7394793;19;20474;-68
2024/01/11 11:02:24;;;;;;;47.72;15.90;;;;;;;-6.42;100.00;102483.28;7395062;19;20042;-68
2024/01/11 11:04:54;;;;;;;46.17;16.08;;;;;;;-6.36;100.00;102476.88;7392903;19;20036;-68
2024/01/11 11:07:23;;;;;;;44.63;16.55;;;;;;;-6.33;100.00;102460.09;7394856;19;20024;-69
2024/01/11 11:09:54;;;;;;;47.47;15.13;;;;;;;-6.31;100.00;102450.00;7392879;19;20379;-69
2024/01/11 11:12:24;;;;;;;39.22;14.02;;;;;;;-6.30;100.00;102434.78;7393818;19;20011;-68
2024/01/11 11:14:57;;;;;;;37.30;15.65;;;;;;;-6.28;100.00;102430.69;7394776;19;20031;-68